CheckWX is a tool to help pilots better visualize weather data.  It is not intended as a substitute for an official pre-flight weather briefing.

06:39:44 UTC

GMME METAR
Rabat-Salé Airport
Rabat, Morocco
Current

40 mins ago

GMME 230600Z 22012KT 9999 FEW015 BKN023 BKN058 16/11 Q1004 NOSIG
Observed
Apr-23 @ 06:00 UTC
Wind
  • 220° at 12 KTS
Visibility
10,000+ meters
Flight Rules
MVFR
Cloud Levels
  • Few at 1,500' AGL
  • Broken at 2,300' AGL
  • Broken at 5,800' AGL
Temperature
16°C / 61°F
Dewpoint
11°C / 52°F
Humidity
72%
Altimeter
29.65" Hg
Pressure
1003.92 hPa
Previous

1 hour ago

GMME 230530Z 21012KT 9999 FEW015 BKN023 BKN058 16/12 Q1004 NOSIG
Observed
Apr-23 @ 05:30 UTC
Wind
  • 210° at 12 KTS
Visibility
10,000+ meters
Flight Rules
MVFR
Cloud Levels
  • Few at 1,500' AGL
  • Broken at 2,300' AGL
  • Broken at 5,800' AGL
Temperature
16°C / 61°F
Dewpoint
12°C / 54°F
Humidity
77%
Altimeter
29.65" Hg
Pressure
1003.92 hPa
Previous

2 hours ago

GMME 230500Z 21012KT 9999 FEW015 BKN023 BKN058 16/12 Q1004 NOSIG
Observed
Apr-23 @ 05:00 UTC
Wind
  • 210° at 12 KTS
Visibility
10,000+ meters
Flight Rules
MVFR
Cloud Levels
  • Few at 1,500' AGL
  • Broken at 2,300' AGL
  • Broken at 5,800' AGL
Temperature
16°C / 61°F
Dewpoint
12°C / 54°F
Humidity
77%
Altimeter
29.65" Hg
Pressure
1003.92 hPa